sensor_id;sensor_type;location;lat;lon;timestamp;P1;durP1;ratioP1;P2;durP2;ratioP2
51495;SDS011;37572;52.094;4.870;2023-04-16T00:02:15;7.47;;;4.20;;
51495;SDS011;37572;52.094;4.870;2023-04-16T00:04:40;4.25;;;1.73;;
51495;SDS011;37572;52.094;4.870;2023-04-16T00:07:06;5.60;;;2.17;;
51495;SDS011;37572;52.094;4.870;2023-04-16T00:09:31;7.47;;;2.38;;
51495;SDS011;37572;52.094;4.870;2023-04-16T00:11:57;5.72;;;2.15;;
51495;SDS011;37572;52.094;4.870;2023-04-16T00:14:22;9.37;;;2.57;;
51495;SDS011;37572;52.094;4.870;2023-04-16T00:16:47;13.05;;;3.58;;
51495;SDS011;37572;52.094;4.870;2023-04-16T00:19:13;8.48;;;2.72;;
51495;SDS011;37572;52.094;4.870;2023-04-16T00:21:38;6.97;;;3.23;;
51495;SDS011;37572;52.094;4.870;2023-04-16T00:24:03;8.90;;;3.50;;
51495;SDS011;37572;52.094;4.870;2023-04-16T00:26:29;6.28;;;2.95;;
51495;SDS011;37572;52.094;4.870;2023-04-16T00:28:54;7.22;;;3.15;;
51495;SDS011;37572;52.094;4.870;2023-04-16T00:31:29;9.43;;;3.40;;
51495;SDS011;37572;52.094;4.870;2023-04-16T00:33:56;9.75;;;3.40;;
51495;SDS011;37572;52.094;4.870;2023-04-16T00:36:22;8.63;;;3.80;;
51495;SDS011;37572;52.094;4.870;2023-04-16T00:38:48;9.40;;;3.63;;
51495;SDS011;37572;52.094;4.870;2023-04-16T00:41:14;9.10;;;3.72;;
51495;SDS011;37572;52.094;4.870;2023-04-16T00:43:40;9.32;;;3.83;;
51495;SDS011;37572;52.094;4.870;2023-04-16T00:46:05;7.33;;;4.10;;
51495;SDS011;37572;52.094;4.870;2023-04-16T00:48:31;5.88;;;3.80;;
51495;SDS011;37572;52.094;4.870;2023-04-16T00:50:57;9.00;;;4.22;;
51495;SDS011;37572;52.094;4.870;2023-04-16T00:53:25;8.98;;;4.68;;
51495;SDS011;37572;52.094;4.870;2023-04-16T00:55:50;8.27;;;3.90;;
51495;SDS011;37572;52.094;4.870;2023-04-16T00:58:16;8.88;;;4.20;;
51495;SDS011;37572;52.094;4.870;2023-04-16T01:00:42;6.78;;;3.80;;
51495;SDS011;37572;52.094;4.870;2023-04-16T01:03:07;9.45;;;4.43;;
51495;SDS011;37572;52.094;4.870;2023-04-16T01:05:35;10.70;;;4.68;;
51495;SDS011;37572;52.094;4.870;2023-04-16T01:08:00;9.48;;;5.03;;
51495;SDS011;37572;52.094;4.870;2023-04-16T01:10:26;7.13;;;3.70;;
51495;SDS011;37572;52.094;4.870;2023-04-16T01:12:51;6.78;;;3.70;;
51495;SDS011;37572;52.094;4.870;2023-04-16T01:15:16;8.33;;;4.03;;
51495;SDS011;37572;52.094;4.870;2023-04-16T01:17:43;8.32;;;3.80;;
51495;SDS011;37572;52.094;4.870;2023-04-16T01:20:11;9.90;;;3.53;;
51495;SDS011;37572;52.094;4.870;2023-04-16T01:22:36;9.30;;;3.15;;
51495;SDS011;37572;52.094;4.870;2023-04-16T01:25:02;12.13;;;5.57;;
51495;SDS011;37572;52.094;4.870;2023-04-16T01:27:27;8.05;;;3.40;;
51495;SDS011;37572;52.094;4.870;2023-04-16T01:29:53;7.93;;;3.10;;
51495;SDS011;37572;52.094;4.870;2023-04-16T01:32:20;7.05;;;3.75;;
51495;SDS011;37572;52.094;4.870;2023-04-16T01:34:45;6.53;;;3.08;;
51495;SDS011;37572;52.094;4.870;2023-04-16T01:37:10;4.87;;;2.80;;
51495;SDS011;37572;52.094;4.870;2023-04-16T01:39:36;7.68;;;3.72;;
51495;SDS011;37572;52.094;4.870;2023-04-16T01:42:01;9.00;;;4.22;;
51495;SDS011;37572;52.094;4.870;2023-04-16T01:44:27;7.43;;;3.50;;
51495;SDS011;37572;52.094;4.870;2023-04-16T01:46:52;8.37;;;3.80;;
51495;SDS011;37572;52.094;4.870;2023-04-16T01:49:19;12.10;;;4.00;;
51495;SDS011;37572;52.094;4.870;2023-04-16T01:51:44;7.55;;;3.70;;
51495;SDS011;37572;52.094;4.870;2023-04-16T01:54:09;9.30;;;4.57;;
51495;SDS011;37572;52.094;4.870;2023-04-16T01:56:35;8.47;;;4.83;;
51495;SDS011;37572;52.094;4.870;2023-04-16T01:59:00;9.95;;;5.68;;
51495;SDS011;37572;52.094;4.870;2023-04-16T02:01:25;10.23;;;4.77;;
51495;SDS011;37572;52.094;4.870;2023-04-16T02:03:51;10.88;;;4.25;;
51495;SDS011;37572;52.094;4.870;2023-04-16T02:06:17;10.07;;;4.32;;
51495;SDS011;37572;52.094;4.870;2023-04-16T02:08:42;11.63;;;5.37;;
51495;SDS011;37572;52.094;4.870;2023-04-16T02:11:07;9.35;;;5.18;;
51495;SDS011;37572;52.094;4.870;2023-04-16T02:13:33;13.93;;;4.97;;
51495;SDS011;37572;52.094;4.870;2023-04-16T02:15:58;14.52;;;5.53;;
51495;SDS011;37572;52.094;4.870;2023-04-16T02:18:23;9.70;;;5.33;;
51495;SDS011;37572;52.094;4.870;2023-04-16T02:20:49;10.45;;;5.60;;
51495;SDS011;37572;52.094;4.870;2023-04-16T02:23:14;11.30;;;4.97;;
51495;SDS011;37572;52.094;4.870;2023-04-16T02:25:41;12.18;;;5.55;;
51495;SDS011;37572;52.094;4.870;2023-04-16T02:28:07;12.32;;;5.35;;
51495;SDS011;37572;52.094;4.870;2023-04-16T02:30:36;10.98;;;4.82;;
51495;SDS011;37572;52.094;4.870;2023-04-16T02:33:03;11.98;;;5.28;;
51495;SDS011;37572;52.094;4.870;2023-04-16T02:35:32;11.18;;;5.40;;
51495;SDS011;37572;52.094;4.870;2023-04-16T02:38:01;12.82;;;5.32;;
51495;SDS011;37572;52.094;4.870;2023-04-16T02:40:28;12.82;;;6.25;;
51495;SDS011;37572;52.094;4.870;2023-04-16T02:42:53;12.63;;;6.18;;
51495;SDS011;37572;52.094;4.870;2023-04-16T02:45:19;13.65;;;6.25;;
51495;SDS011;37572;52.094;4.870;2023-04-16T02:47:45;13.75;;;6.00;;
51495;SDS011;37572;52.094;4.870;2023-04-16T02:50:11;11.38;;;5.78;;
51495;SDS011;37572;52.094;4.870;2023-04-16T02:52:37;13.45;;;6.03;;
51495;SDS011;37572;52.094;4.870;2023-04-16T02:55:02;11.40;;;5.30;;
51495;SDS011;37572;52.094;4.870;2023-04-16T02:57:28;10.70;;;5.72;;
51495;SDS011;37572;52.094;4.870;2023-04-16T02:59:53;13.97;;;5.27;;
51495;SDS011;37572;52.094;4.870;2023-04-16T03:02:18;10.47;;;5.27;;
51495;SDS011;37572;52.094;4.870;2023-04-16T03:04:44;14.40;;;5.18;;
51495;SDS011;37572;52.094;4.870;2023-04-16T03:07:10;8.13;;;4.57;;
51495;SDS011;37572;52.094;4.870;2023-04-16T03:09:36;10.00;;;4.75;;
51495;SDS011;37572;52.094;4.870;2023-04-16T03:12:02;12.10;;;4.60;;
51495;SDS011;37572;52.094;4.870;2023-04-16T03:14:28;11.13;;;4.75;;
51495;SDS011;37572;52.094;4.870;2023-04-16T03:16:54;10.57;;;4.82;;
51495;SDS011;37572;52.094;4.870;2023-04-16T03:19:19;13.88;;;4.85;;
51495;SDS011;37572;52.094;4.870;2023-04-16T03:21:44;11.05;;;4.10;;
51495;SDS011;37572;52.094;4.870;2023-04-16T03:24:10;9.77;;;4.43;;
51495;SDS011;37572;52.094;4.870;2023-04-16T03:26:35;10.00;;;5.00;;
51495;SDS011;37572;52.094;4.870;2023-04-16T03:29:00;9.43;;;4.38;;
51495;SDS011;37572;52.094;4.870;2023-04-16T03:31:26;9.27;;;4.20;;
51495;SDS011;37572;52.094;4.870;2023-04-16T03:33:51;10.65;;;4.13;;
51495;SDS011;37572;52.094;4.870;2023-04-16T03:36:17;11.23;;;4.82;;
51495;SDS011;37572;52.094;4.870;2023-04-16T03:38:42;11.05;;;5.35;;
51495;SDS011;37572;52.094;4.870;2023-04-16T03:41:08;14.55;;;5.10;;
51495;SDS011;37572;52.094;4.870;2023-04-16T03:43:33;8.67;;;4.10;;
51495;SDS011;37572;52.094;4.870;2023-04-16T03:45:58;8.33;;;4.83;;
51495;SDS011;37572;52.094;4.870;2023-04-16T03:48:24;11.77;;;4.50;;
51495;SDS011;37572;52.094;4.870;2023-04-16T03:50:49;9.07;;;4.27;;
51495;SDS011;37572;52.094;4.870;2023-04-16T03:53:14;8.87;;;3.60;;
51495;SDS011;37572;52.094;4.870;2023-04-16T03:55:40;12.75;;;4.47;;
51495;SDS011;37572;52.094;4.870;2023-04-16T03:58:06;10.48;;;5.00;;
51495;SDS011;37572;52.094;4.870;2023-04-16T04:00:31;10.90;;;5.03;;
51495;SDS011;37572;52.094;4.870;2023-04-16T04:02:57;12.27;;;5.07;;
51495;SDS011;37572;52.094;4.870;2023-04-16T04:05:23;10.67;;;5.67;;
51495;SDS011;37572;52.094;4.870;2023-04-16T04:07:48;10.00;;;5.72;;
51495;SDS011;37572;52.094;4.870;2023-04-16T04:10:14;13.40;;;5.93;;
51495;SDS011;37572;52.094;4.870;2023-04-16T04:12:40;11.75;;;6.03;;
51495;SDS011;37572;52.094;4.870;2023-04-16T04:15:05;12.93;;;6.23;;
51495;SDS011;37572;52.094;4.870;2023-04-16T04:17:31;10.93;;;5.78;;
51495;SDS011;37572;52.094;4.870;2023-04-16T04:19:56;11.40;;;5.33;;
51495;SDS011;37572;52.094;4.870;2023-04-16T04:22:22;13.07;;;5.60;;
51495;SDS011;37572;52.094;4.870;2023-04-16T04:24:47;13.07;;;6.28;;
51495;SDS011;37572;52.094;4.870;2023-04-16T04:27:12;13.10;;;6.40;;
51495;SDS011;37572;52.094;4.870;2023-04-16T04:29:38;17.07;;;7.57;;
51495;SDS011;37572;52.094;4.870;2023-04-16T04:32:03;14.93;;;7.07;;
51495;SDS011;37572;52.094;4.870;2023-04-16T04:34:28;13.75;;;6.88;;
51495;SDS011;37572;52.094;4.870;2023-04-16T04:36:54;15.43;;;6.60;;
51495;SDS011;37572;52.094;4.870;2023-04-16T04:39:19;14.32;;;7.22;;
51495;SDS011;37572;52.094;4.870;2023-04-16T04:41:45;15.60;;;6.90;;
51495;SDS011;37572;52.094;4.870;2023-04-16T04:44:11;15.52;;;8.10;;
51495;SDS011;37572;52.094;4.870;2023-04-16T04:46:37;13.85;;;6.53;;
51495;SDS011;37572;52.094;4.870;2023-04-16T04:49:02;17.60;;;9.80;;
51495;SDS011;37572;52.094;4.870;2023-04-16T04:51:27;15.82;;;7.15;;
51495;SDS011;37572;52.094;4.870;2023-04-16T04:53:53;15.88;;;7.70;;
51495;SDS011;37572;52.094;4.870;2023-04-16T04:56:18;16.03;;;7.30;;
51495;SDS011;37572;52.094;4.870;2023-04-16T04:58:44;14.67;;;6.77;;
51495;SDS011;37572;52.094;4.870;2023-04-16T05:01:09;15.10;;;9.53;;
51495;SDS011;37572;52.094;4.870;2023-04-16T05:03:34;19.73;;;9.60;;
51495;SDS011;37572;52.094;4.870;2023-04-16T05:06:00;17.92;;;7.75;;
51495;SDS011;37572;52.094;4.870;2023-04-16T05:08:25;22.30;;;8.40;;
51495;SDS011;37572;52.094;4.870;2023-04-16T05:10:50;14.35;;;8.02;;
51495;SDS011;37572;52.094;4.870;2023-04-16T05:13:16;14.45;;;7.40;;
51495;SDS011;37572;52.094;4.870;2023-04-16T05:15:41;15.68;;;7.35;;
51495;SDS011;37572;52.094;4.870;2023-04-16T05:18:07;13.10;;;7.20;;
51495;SDS011;37572;52.094;4.870;2023-04-16T05:20:32;17.57;;;6.90;;
51495;SDS011;37572;52.094;4.870;2023-04-16T05:22:57;13.93;;;8.20;;
51495;SDS011;37572;52.094;4.870;2023-04-16T05:25:22;16.80;;;7.57;;
51495;SDS011;37572;52.094;4.870;2023-04-16T05:27:48;15.10;;;6.57;;
51495;SDS011;37572;52.094;4.870;2023-04-16T05:30:13;16.97;;;7.33;;
51495;SDS011;37572;52.094;4.870;2023-04-16T05:32:38;13.93;;;7.22;;
51495;SDS011;37572;52.094;4.870;2023-04-16T05:35:05;20.23;;;8.48;;
51495;SDS011;37572;52.094;4.870;2023-04-16T05:37:30;15.40;;;6.53;;
51495;SDS011;37572;52.094;4.870;2023-04-16T05:39:56;17.60;;;7.65;;
51495;SDS011;37572;52.094;4.870;2023-04-16T05:42:21;15.07;;;7.80;;
51495;SDS011;37572;52.094;4.870;2023-04-16T05:44:46;17.53;;;7.57;;
51495;SDS011;37572;52.094;4.870;2023-04-16T05:47:12;17.27;;;8.15;;
51495;SDS011;37572;52.094;4.870;2023-04-16T05:49:37;19.83;;;8.90;;
51495;SDS011;37572;52.094;4.870;2023-04-16T05:52:03;18.73;;;8.20;;
51495;SDS011;37572;52.094;4.870;2023-04-16T05:54:29;20.52;;;7.75;;
51495;SDS011;37572;52.094;4.870;2023-04-16T05:56:55;15.68;;;7.95;;
51495;SDS011;37572;52.094;4.870;2023-04-16T05:59:20;18.08;;;8.70;;
51495;SDS011;37572;52.094;4.870;2023-04-16T06:01:45;17.63;;;7.88;;
51495;SDS011;37572;52.094;4.870;2023-04-16T06:04:11;20.05;;;8.88;;
51495;SDS011;37572;52.094;4.870;2023-04-16T06:06:36;12.60;;;7.20;;
51495;SDS011;37572;52.094;4.870;2023-04-16T06:09:02;13.65;;;7.25;;
51495;SDS011;37572;52.094;4.870;2023-04-16T06:11:30;19.05;;;8.25;;
51495;SDS011;37572;52.094;4.870;2023-04-16T06:13:56;18.42;;;8.18;;
51495;SDS011;37572;52.094;4.870;2023-04-16T06:16:21;17.00;;;7.23;;
51495;SDS011;37572;52.094;4.870;2023-04-16T06:18:46;15.75;;;8.70;;
51495;SDS011;37572;52.094;4.870;2023-04-16T06:21:12;16.70;;;7.55;;
51495;SDS011;37572;52.094;4.870;2023-04-16T06:23:37;15.63;;;6.93;;
51495;SDS011;37572;52.094;4.870;2023-04-16T06:26:03;16.20;;;7.70;;
51495;SDS011;37572;52.094;4.870;2023-04-16T06:28:28;16.67;;;8.15;;
51495;SDS011;37572;52.094;4.870;2023-04-16T06:30:54;14.02;;;7.65;;
51495;SDS011;37572;52.094;4.870;2023-04-16T06:33:19;21.20;;;9.15;;
51495;SDS011;37572;52.094;4.870;2023-04-16T06:35:44;14.40;;;7.20;;
51495;SDS011;37572;52.094;4.870;2023-04-16T06:38:10;26.00;;;10.50;;
51495;SDS011;37572;52.094;4.870;2023-04-16T06:40:35;17.83;;;8.00;;
51495;SDS011;37572;52.094;4.870;2023-04-16T06:43:01;13.82;;;7.88;;
51495;SDS011;37572;52.094;4.870;2023-04-16T06:45:27;17.98;;;10.20;;
51495;SDS011;37572;52.094;4.870;2023-04-16T06:47:52;17.52;;;10.50;;
51495;SDS011;37572;52.094;4.870;2023-04-16T06:50:17;15.37;;;8.17;;
51495;SDS011;37572;52.094;4.870;2023-04-16T06:52:43;17.38;;;9.20;;
51495;SDS011;37572;52.094;4.870;2023-04-16T06:55:08;13.98;;;8.23;;
51495;SDS011;37572;52.094;4.870;2023-04-16T06:57:34;16.58;;;8.82;;
51495;SDS011;37572;52.094;4.870;2023-04-16T07:00:00;18.42;;;8.52;;
51495;SDS011;37572;52.094;4.870;2023-04-16T07:02:25;18.75;;;9.82;;
51495;SDS011;37572;52.094;4.870;2023-04-16T07:04:50;24.10;;;9.65;;
51495;SDS011;37572;52.094;4.870;2023-04-16T07:07:16;18.25;;;9.48;;
51495;SDS011;37572;52.094;4.870;2023-04-16T07:09:42;19.90;;;9.95;;
51495;SDS011;37572;52.094;4.870;2023-04-16T07:12:07;21.00;;;9.93;;
51495;SDS011;37572;52.094;4.870;2023-04-16T07:14:32;21.52;;;11.52;;
51495;SDS011;37572;52.094;4.870;2023-04-16T07:16:58;21.47;;;9.53;;
51495;SDS011;37572;52.094;4.870;2023-04-16T07:19:23;20.35;;;9.02;;
51495;SDS011;37572;52.094;4.870;2023-04-16T07:21:48;24.33;;;9.23;;
51495;SDS011;37572;52.094;4.870;2023-04-16T07:24:15;21.75;;;11.30;;
51495;SDS011;37572;52.094;4.870;2023-04-16T07:26:41;16.90;;;8.45;;
51495;SDS011;37572;52.094;4.870;2023-04-16T07:29:06;17.95;;;9.02;;
51495;SDS011;37572;52.094;4.870;2023-04-16T07:31:31;16.85;;;10.10;;
51495;SDS011;37572;52.094;4.870;2023-04-16T07:33:57;20.30;;;9.23;;
51495;SDS011;37572;52.094;4.870;2023-04-16T07:36:23;16.50;;;7.65;;
51495;SDS011;37572;52.094;4.870;2023-04-16T07:38:48;17.85;;;8.68;;
51495;SDS011;37572;52.094;4.870;2023-04-16T07:41:13;18.75;;;9.07;;
51495;SDS011;37572;52.094;4.870;2023-04-16T07:43:39;17.10;;;9.20;;
51495;SDS011;37572;52.094;4.870;2023-04-16T07:46:04;19.27;;;9.35;;
51495;SDS011;37572;52.094;4.870;2023-04-16T07:48:30;15.35;;;8.57;;
51495;SDS011;37572;52.094;4.870;2023-04-16T07:50:55;17.05;;;7.68;;
51495;SDS011;37572;52.094;4.870;2023-04-16T07:53:20;14.98;;;8.35;;
51495;SDS011;37572;52.094;4.870;2023-04-16T07:55:46;20.10;;;9.23;;
51495;SDS011;37572;52.094;4.870;2023-04-16T07:58:11;18.25;;;8.40;;
51495;SDS011;37572;52.094;4.870;2023-04-16T08:00:36;15.93;;;7.63;;
51495;SDS011;37572;52.094;4.870;2023-04-16T08:03:02;13.93;;;8.50;;
51495;SDS011;37572;52.094;4.870;2023-04-16T08:05:27;17.20;;;10.23;;
51495;SDS011;37572;52.094;4.870;2023-04-16T08:07:53;15.32;;;7.85;;
51495;SDS011;37572;52.094;4.870;2023-04-16T08:10:18;14.93;;;8.07;;
51495;SDS011;37572;52.094;4.870;2023-04-16T08:12:43;17.58;;;9.50;;
51495;SDS011;37572;52.094;4.870;2023-04-16T08:15:09;14.15;;;7.55;;
51495;SDS011;37572;52.094;4.870;2023-04-16T08:17:34;16.45;;;8.43;;
51495;SDS011;37572;52.094;4.870;2023-04-16T08:20:01;16.70;;;7.40;;
51495;SDS011;37572;52.094;4.870;2023-04-16T08:22:26;17.63;;;8.70;;
51495;SDS011;37572;52.094;4.870;2023-04-16T08:24:52;18.70;;;9.77;;
51495;SDS011;37572;52.094;4.870;2023-04-16T08:27:17;16.40;;;8.20;;
51495;SDS011;37572;52.094;4.870;2023-04-16T08:29:42;15.68;;;8.57;;
51495;SDS011;37572;52.094;4.870;2023-04-16T08:32:08;17.05;;;10.60;;
51495;SDS011;37572;52.094;4.870;2023-04-16T08:34:36;18.77;;;9.30;;
51495;SDS011;37572;52.094;4.870;2023-04-16T08:37:01;17.35;;;9.02;;
51495;SDS011;37572;52.094;4.870;2023-04-16T08:39:27;17.77;;;9.45;;
51495;SDS011;37572;52.094;4.870;2023-04-16T08:41:52;16.13;;;8.38;;
51495;SDS011;37572;52.094;4.870;2023-04-16T08:44:29;17.02;;;8.20;;
51495;SDS011;37572;52.094;4.870;2023-04-16T08:46:56;16.90;;;7.80;;
51495;SDS011;37572;52.094;4.870;2023-04-16T08:49:23;12.15;;;7.82;;
51495;SDS011;37572;52.094;4.870;2023-04-16T08:51:52;12.48;;;7.75;;
51495;SDS011;37572;52.094;4.870;2023-04-16T08:54:30;11.23;;;7.95;;
51495;SDS011;37572;52.094;4.870;2023-04-16T08:56:56;15.82;;;8.00;;
51495;SDS011;37572;52.094;4.870;2023-04-16T08:59:23;14.85;;;8.30;;
51495;SDS011;37572;52.094;4.870;2023-04-16T09:01:49;15.27;;;7.68;;
51495;SDS011;37572;52.094;4.870;2023-04-16T09:04:16;15.48;;;7.32;;
51495;SDS011;37572;52.094;4.870;2023-04-16T09:06:43;15.52;;;8.38;;
51495;SDS011;37572;52.094;4.870;2023-04-16T09:09:09;16.48;;;8.57;;
51495;SDS011;37572;52.094;4.870;2023-04-16T09:11:35;18.10;;;9.57;;
51495;SDS011;37572;52.094;4.870;2023-04-16T09:14:01;17.10;;;8.40;;
51495;SDS011;37572;52.094;4.870;2023-04-16T09:16:28;16.75;;;8.77;;
51495;SDS011;37572;52.094;4.870;2023-04-16T09:18:57;16.10;;;8.10;;
51495;SDS011;37572;52.094;4.870;2023-04-16T09:21:23;16.35;;;8.88;;
51495;SDS011;37572;52.094;4.870;2023-04-16T09:23:49;15.77;;;8.80;;
51495;SDS011;37572;52.094;4.870;2023-04-16T09:26:17;15.55;;;7.63;;
51495;SDS011;37572;52.094;4.870;2023-04-16T09:28:47;14.10;;;7.15;;
51495;SDS011;37572;52.094;4.870;2023-04-16T09:31:13;12.80;;;7.50;;
51495;SDS011;37572;52.094;4.870;2023-04-16T09:33:40;16.98;;;8.75;;
51495;SDS011;37572;52.094;4.870;2023-04-16T09:36:07;15.80;;;8.35;;
51495;SDS011;37572;52.094;4.870;2023-04-16T09:38:48;13.93;;;9.05;;
51495;SDS011;37572;52.094;4.870;2023-04-16T09:41:15;15.13;;;8.52;;
51495;SDS011;37572;52.094;4.870;2023-04-16T09:43:47;17.42;;;9.13;;
51495;SDS011;37572;52.094;4.870;2023-04-16T09:46:13;16.75;;;8.73;;
51495;SDS011;37572;52.094;4.870;2023-04-16T09:48:39;19.85;;;10.13;;
51495;SDS011;37572;52.094;4.870;2023-04-16T09:51:05;18.75;;;9.77;;
51495;SDS011;37572;52.094;4.870;2023-04-16T09:53:31;20.05;;;9.88;;
51495;SDS011;37572;52.094;4.870;2023-04-16T09:55:57;16.50;;;8.93;;
51495;SDS011;37572;52.094;4.870;2023-04-16T09:58:26;18.58;;;10.70;;
51495;SDS011;37572;52.094;4.870;2023-04-16T10:00:59;17.77;;;10.07;;
51495;SDS011;37572;52.094;4.870;2023-04-16T10:03:31;15.55;;;7.97;;
51495;SDS011;37572;52.094;4.870;2023-04-16T10:06:13;17.30;;;8.75;;
51495;SDS011;37572;52.094;4.870;2023-04-16T10:08:45;17.50;;;10.57;;
51495;SDS011;37572;52.094;4.870;2023-04-16T10:11:12;15.57;;;8.77;;
51495;SDS011;37572;52.094;4.870;2023-04-16T10:13:37;15.27;;;8.93;;
51495;SDS011;37572;52.094;4.870;2023-04-16T10:16:03;17.50;;;8.10;;
51495;SDS011;37572;52.094;4.870;2023-04-16T10:18:28;16.55;;;8.35;;
51495;SDS011;37572;52.094;4.870;2023-04-16T10:20:54;14.23;;;9.13;;
51495;SDS011;37572;52.094;4.870;2023-04-16T10:23:21;13.85;;;7.78;;
51495;SDS011;37572;52.094;4.870;2023-04-16T10:25:50;13.93;;;8.55;;
51495;SDS011;37572;52.094;4.870;2023-04-16T10:28:18;14.20;;;7.70;;
51495;SDS011;37572;52.094;4.870;2023-04-16T10:30:44;17.75;;;8.82;;
51495;SDS011;37572;52.094;4.870;2023-04-16T10:33:18;15.52;;;10.55;;
51495;SDS011;37572;52.094;4.870;2023-04-16T10:35:45;14.95;;;8.98;;
51495;SDS011;37572;52.094;4.870;2023-04-16T10:38:28;13.25;;;8.30;;
51495;SDS011;37572;52.094;4.870;2023-04-16T10:40:57;16.30;;;9.18;;
51495;SDS011;37572;52.094;4.870;2023-04-16T10:43:23;16.38;;;8.88;;
51495;SDS011;37572;52.094;4.870;2023-04-16T10:45:49;14.75;;;9.05;;
51495;SDS011;37572;52.094;4.870;2023-04-16T10:48:17;15.47;;;8.67;;
51495;SDS011;37572;52.094;4.870;2023-04-16T10:50:42;16.27;;;9.82;;
51495;SDS011;37572;52.094;4.870;2023-04-16T10:53:21;17.15;;;9.82;;
51495;SDS011;37572;52.094;4.870;2023-04-16T10:55:58;12.77;;;8.60;;
51495;SDS011;37572;52.094;4.870;2023-04-16T10:58:35;16.92;;;10.63;;
51495;SDS011;37572;52.094;4.870;2023-04-16T11:01:05;16.13;;;9.10;;
51495;SDS011;37572;52.094;4.870;2023-04-16T11:03:34;15.95;;;8.65;;
51495;SDS011;37572;52.094;4.870;2023-04-16T11:06:09;19.60;;;10.65;;
51495;SDS011;37572;52.094;4.870;2023-04-16T11:08:37;14.73;;;9.75;;
51495;SDS011;37572;52.094;4.870;2023-04-16T11:11:05;15.43;;;9.63;;
51495;SDS011;37572;52.094;4.870;2023-04-16T11:13:31;16.75;;;8.60;;
51495;SDS011;37572;52.094;4.870;2023-04-16T11:15:57;18.95;;;10.10;;
51495;SDS011;37572;52.094;4.870;2023-04-16T11:18:23;17.15;;;8.88;;
51495;SDS011;37572;52.094;4.870;2023-04-16T11:20:49;14.25;;;8.48;;
51495;SDS011;37572;52.094;4.870;2023-04-16T11:23:15;15.65;;;9.90;;
51495;SDS011;37572;52.094;4.870;2023-04-16T11:25:41;17.52;;;9.32;;
51495;SDS011;37572;52.094;4.870;2023-04-16T11:28:06;17.05;;;10.65;;
51495;SDS011;37572;52.094;4.870;2023-04-16T11:30:32;16.80;;;9.23;;
51495;SDS011;37572;52.094;4.870;2023-04-16T11:33:08;15.73;;;8.43;;
51495;SDS011;37572;52.094;4.870;2023-04-16T11:35:35;19.67;;;10.48;;
51495;SDS011;37572;52.094;4.870;2023-04-16T11:38:03;17.13;;;9.98;;
51495;SDS011;37572;52.094;4.870;2023-04-16T11:40:30;16.35;;;8.98;;
51495;SDS011;37572;52.094;4.870;2023-04-16T11:42:58;18.52;;;9.55;;
51495;SDS011;37572;52.094;4.870;2023-04-16T11:45:25;18.08;;;9.65;;
51495;SDS011;37572;52.094;4.870;2023-04-16T11:47:52;15.07;;;9.20;;
51495;SDS011;37572;52.094;4.870;2023-04-16T11:52:44;17.60;;;9.45;;
51495;SDS011;37572;52.094;4.870;2023-04-16T11:55:11;20.77;;;10.18;;
51495;SDS011;37572;52.094;4.870;2023-04-16T11:57:36;15.07;;;9.93;;
51495;SDS011;37572;52.094;4.870;2023-04-16T12:00:02;14.68;;;9.25;;
51495;SDS011;37572;52.094;4.870;2023-04-16T12:02:34;18.10;;;9.07;;
51495;SDS011;37572;52.094;4.870;2023-04-16T12:05:00;19.80;;;10.38;;
51495;SDS011;37572;52.094;4.870;2023-04-16T12:07:26;19.08;;;10.25;;
51495;SDS011;37572;52.094;4.870;2023-04-16T12:10:02;16.45;;;8.38;;
51495;SDS011;37572;52.094;4.870;2023-04-16T12:12:30;21.20;;;11.45;;
51495;SDS011;37572;52.094;4.870;2023-04-16T12:14:56;21.00;;;11.50;;
51495;SDS011;37572;52.094;4.870;2023-04-16T12:17:23;18.23;;;9.57;;
51495;SDS011;37572;52.094;4.870;2023-04-16T12:19:56;20.65;;;11.48;;
51495;SDS011;37572;52.094;4.870;2023-04-16T12:24:58;16.30;;;10.10;;
51495;SDS011;37572;52.094;4.870;2023-04-16T12:27:43;21.40;;;11.02;;
51495;SDS011;37572;52.094;4.870;2023-04-16T12:30:09;17.83;;;10.25;;
51495;SDS011;37572;52.094;4.870;2023-04-16T12:32:35;16.63;;;9.77;;
51495;SDS011;37572;52.094;4.870;2023-04-16T12:35:00;16.30;;;8.98;;
51495;SDS011;37572;52.094;4.870;2023-04-16T12:37:26;20.73;;;11.02;;
51495;SDS011;37572;52.094;4.870;2023-04-16T12:39:52;18.08;;;10.35;;
51495;SDS011;37572;52.094;4.870;2023-04-16T12:42:17;15.88;;;9.85;;
51495;SDS011;37572;52.094;4.870;2023-04-16T12:44:43;19.13;;;11.63;;
51495;SDS011;37572;52.094;4.870;2023-04-16T12:47:08;13.25;;;8.45;;
51495;SDS011;37572;52.094;4.870;2023-04-16T12:49:34;17.65;;;9.65;;
51495;SDS011;37572;52.094;4.870;2023-04-16T12:52:01;15.75;;;9.48;;
51495;SDS011;37572;52.094;4.870;2023-04-16T12:54:26;13.90;;;8.68;;
51495;SDS011;37572;52.094;4.870;2023-04-16T12:56:54;13.27;;;7.95;;
51495;SDS011;37572;52.094;4.870;2023-04-16T12:59:20;14.95;;;9.52;;
51495;SDS011;37572;52.094;4.870;2023-04-16T13:01:45;15.17;;;8.03;;
51495;SDS011;37572;52.094;4.870;2023-04-16T13:04:10;12.93;;;8.23;;
51495;SDS011;37572;52.094;4.870;2023-04-16T13:06:36;17.80;;;10.32;;
51495;SDS011;37572;52.094;4.870;2023-04-16T13:09:02;13.43;;;8.40;;
51495;SDS011;37572;52.094;4.870;2023-04-16T13:11:28;16.15;;;10.07;;
51495;SDS011;37572;52.094;4.870;2023-04-16T13:13:54;15.50;;;9.05;;
51495;SDS011;37572;52.094;4.870;2023-04-16T13:16:19;16.83;;;10.35;;
51495;SDS011;37572;52.094;4.870;2023-04-16T13:18:45;20.70;;;11.40;;
51495;SDS011;37572;52.094;4.870;2023-04-16T13:21:10;14.30;;;8.30;;
51495;SDS011;37572;52.094;4.870;2023-04-16T13:23:36;19.40;;;10.48;;
51495;SDS011;37572;52.094;4.870;2023-04-16T13:26:01;17.30;;;9.88;;
51495;SDS011;37572;52.094;4.870;2023-04-16T13:28:27;15.55;;;9.25;;
51495;SDS011;37572;52.094;4.870;2023-04-16T13:30:52;18.48;;;9.50;;
51495;SDS011;37572;52.094;4.870;2023-04-16T13:33:18;16.02;;;9.38;;
51495;SDS011;37572;52.094;4.870;2023-04-16T13:35:44;15.95;;;10.13;;
51495;SDS011;37572;52.094;4.870;2023-04-16T13:38:10;14.75;;;8.80;;
51495;SDS011;37572;52.094;4.870;2023-04-16T13:40:36;16.92;;;9.48;;
51495;SDS011;37572;52.094;4.870;2023-04-16T13:43:01;15.50;;;10.13;;
51495;SDS011;37572;52.094;4.870;2023-04-16T13:45:27;17.25;;;9.73;;
51495;SDS011;37572;52.094;4.870;2023-04-16T13:47:53;16.52;;;9.00;;
51495;SDS011;37572;52.094;4.870;2023-04-16T13:50:18;17.40;;;8.77;;
51495;SDS011;37572;52.094;4.870;2023-04-16T13:52:43;18.98;;;10.05;;
51495;SDS011;37572;52.094;4.870;2023-04-16T13:55:09;16.83;;;8.48;;
51495;SDS011;37572;52.094;4.870;2023-04-16T13:57:34;19.20;;;9.85;;
51495;SDS011;37572;52.094;4.870;2023-04-16T14:00:00;18.90;;;10.38;;
51495;SDS011;37572;52.094;4.870;2023-04-16T14:02:26;20.15;;;10.45;;
51495;SDS011;37572;52.094;4.870;2023-04-16T14:04:52;16.35;;;8.80;;
51495;SDS011;37572;52.094;4.870;2023-04-16T14:07:17;16.60;;;9.18;;
51495;SDS011;37572;52.094;4.870;2023-04-16T14:09:45;14.30;;;9.10;;
51495;SDS011;37572;52.094;4.870;2023-04-16T14:12:10;16.13;;;9.23;;
51495;SDS011;37572;52.094;4.870;2023-04-16T14:14:35;18.30;;;10.57;;
51495;SDS011;37572;52.094;4.870;2023-04-16T14:17:01;16.77;;;9.57;;
51495;SDS011;37572;52.094;4.870;2023-04-16T14:19:27;19.08;;;11.05;;
51495;SDS011;37572;52.094;4.870;2023-04-16T14:21:52;17.77;;;10.50;;
51495;SDS011;37572;52.094;4.870;2023-04-16T14:24:18;16.88;;;10.88;;
51495;SDS011;37572;52.094;4.870;2023-04-16T14:26:43;18.52;;;10.65;;
51495;SDS011;37572;52.094;4.870;2023-04-16T14:29:08;21.03;;;10.63;;
51495;SDS011;37572;52.094;4.870;2023-04-16T14:31:34;14.80;;;9.70;;
51495;SDS011;37572;52.094;4.870;2023-04-16T14:34:00;14.98;;;8.95;;
51495;SDS011;37572;52.094;4.870;2023-04-16T14:36:26;15.60;;;9.45;;